Terminal Aerodrome Forecast
Issued by NWS

Home | Current Version | Previous Version | Text Only | Print | Product List | Glossary On
Versions: 1 2 3 4 5 6 7 8 9 10 11 12 13 14 15 16 17 18
000
FTUS43 KAPX 292139 AAA
TAFMBL
TAF AMD
KMBL 292139Z 2922/3018 36013G21KT P6SM OVC022
     FM300200 32015G31KT 4SM -SHSN OVC015
     FM300400 32013G33KT 1SM -SHSN BLSN OVC012
     FM301000 32009KT 5SM -SHSN OVC018
      AMD LTD TO CLD VIS AND WIND=

USA.gov is the U.S. government's official web portal to all federal, state and local government web resources and services.